sensor_id;sensor_type;location;lat;lon;timestamp;P1;durP1;ratioP1;P2;durP2;ratioP2
56999;SDS011;42891;50.006;21.964;2024-01-30T00:02:36;23.10;;;11.07;;
56999;SDS011;42891;50.006;21.964;2024-01-30T00:06:36;23.52;;;10.55;;
56999;SDS011;42891;50.006;21.964;2024-01-30T00:10:37;17.77;;;8.40;;
56999;SDS011;42891;50.006;21.964;2024-01-30T00:14:41;13.85;;;6.85;;
56999;SDS011;42891;50.006;21.964;2024-01-30T00:18:41;11.95;;;6.30;;
56999;SDS011;42891;50.006;21.964;2024-01-30T00:22:42;10.77;;;4.80;;
56999;SDS011;42891;50.006;21.964;2024-01-30T00:26:42;7.32;;;5.22;;
56999;SDS011;42891;50.006;21.964;2024-01-30T00:30:43;7.97;;;5.10;;
56999;SDS011;42891;50.006;21.964;2024-01-30T00:34:44;9.43;;;5.20;;
56999;SDS011;42891;50.006;21.964;2024-01-30T00:38:44;8.00;;;4.80;;
56999;SDS011;42891;50.006;21.964;2024-01-30T00:42:45;8.80;;;5.10;;
56999;SDS011;42891;50.006;21.964;2024-01-30T00:46:46;7.35;;;5.13;;
56999;SDS011;42891;50.006;21.964;2024-01-30T00:50:46;7.85;;;4.78;;
56999;SDS011;42891;50.006;21.964;2024-01-30T00:54:47;7.80;;;4.68;;
56999;SDS011;42891;50.006;21.964;2024-01-30T00:58:47;7.25;;;4.75;;
56999;SDS011;42891;50.006;21.964;2024-01-30T01:02:48;8.40;;;5.15;;
56999;SDS011;42891;50.006;21.964;2024-01-30T01:06:48;8.35;;;5.07;;
56999;SDS011;42891;50.006;21.964;2024-01-30T01:10:49;7.45;;;4.65;;
56999;SDS011;42891;50.006;21.964;2024-01-30T01:14:50;8.35;;;4.63;;
56999;SDS011;42891;50.006;21.964;2024-01-30T01:18:50;7.63;;;4.65;;
56999;SDS011;42891;50.006;21.964;2024-01-30T01:22:51;7.65;;;4.85;;
56999;SDS011;42891;50.006;21.964;2024-01-30T01:26:52;7.28;;;5.07;;
56999;SDS011;42891;50.006;21.964;2024-01-30T01:30:53;8.38;;;4.93;;
56999;SDS011;42891;50.006;21.964;2024-01-30T01:34:53;8.65;;;5.40;;
56999;SDS011;42891;50.006;21.964;2024-01-30T01:38:54;9.27;;;5.55;;
56999;SDS011;42891;50.006;21.964;2024-01-30T01:42:55;9.48;;;6.07;;
56999;SDS011;42891;50.006;21.964;2024-01-30T01:46:56;10.32;;;6.32;;
56999;SDS011;42891;50.006;21.964;2024-01-30T01:50:57;9.90;;;6.22;;
56999;SDS011;42891;50.006;21.964;2024-01-30T01:54:58;11.90;;;6.95;;
56999;SDS011;42891;50.006;21.964;2024-01-30T01:59:05;11.60;;;6.63;;
56999;SDS011;42891;50.006;21.964;2024-01-30T02:03:09;11.20;;;7.03;;
56999;SDS011;42891;50.006;21.964;2024-01-30T02:07:11;11.65;;;6.85;;
56999;SDS011;42891;50.006;21.964;2024-01-30T02:11:12;10.48;;;6.28;;
56999;SDS011;42891;50.006;21.964;2024-01-30T02:15:13;12.30;;;6.60;;
56999;SDS011;42891;50.006;21.964;2024-01-30T02:19:14;13.05;;;7.60;;
56999;SDS011;42891;50.006;21.964;2024-01-30T02:23:17;11.45;;;6.40;;
56999;SDS011;42891;50.006;21.964;2024-01-30T02:27:20;9.18;;;6.03;;
56999;SDS011;42891;50.006;21.964;2024-01-30T02:31:20;11.05;;;6.07;;
56999;SDS011;42891;50.006;21.964;2024-01-30T02:35:21;8.10;;;4.78;;
56999;SDS011;42891;50.006;21.964;2024-01-30T02:39:21;7.78;;;5.05;;
56999;SDS011;42891;50.006;21.964;2024-01-30T02:43:21;7.32;;;5.05;;
56999;SDS011;42891;50.006;21.964;2024-01-30T02:47:22;6.93;;;4.80;;
56999;SDS011;42891;50.006;21.964;2024-01-30T02:51:23;7.18;;;4.72;;
56999;SDS011;42891;50.006;21.964;2024-01-30T02:55:24;8.27;;;5.00;;
56999;SDS011;42891;50.006;21.964;2024-01-30T02:59:24;9.15;;;5.63;;
56999;SDS011;42891;50.006;21.964;2024-01-30T03:03:24;8.43;;;5.55;;
56999;SDS011;42891;50.006;21.964;2024-01-30T03:07:25;7.32;;;5.22;;
56999;SDS011;42891;50.006;21.964;2024-01-30T03:11:26;7.38;;;4.75;;
56999;SDS011;42891;50.006;21.964;2024-01-30T03:15:26;8.70;;;5.88;;
56999;SDS011;42891;50.006;21.964;2024-01-30T03:19:26;7.45;;;4.97;;
56999;SDS011;42891;50.006;21.964;2024-01-30T03:23:27;9.05;;;5.80;;
56999;SDS011;42891;50.006;21.964;2024-01-30T03:27:27;7.82;;;5.43;;
56999;SDS011;42891;50.006;21.964;2024-01-30T03:31:29;8.27;;;5.95;;
56999;SDS011;42891;50.006;21.964;2024-01-30T03:35:30;9.43;;;6.05;;
56999;SDS011;42891;50.006;21.964;2024-01-30T03:39:30;9.32;;;5.63;;
56999;SDS011;42891;50.006;21.964;2024-01-30T03:43:30;10.27;;;5.38;;
56999;SDS011;42891;50.006;21.964;2024-01-30T03:47:31;9.50;;;5.88;;
56999;SDS011;42891;50.006;21.964;2024-01-30T03:51:31;9.27;;;6.35;;
56999;SDS011;42891;50.006;21.964;2024-01-30T03:55:32;11.88;;;6.63;;
56999;SDS011;42891;50.006;21.964;2024-01-30T03:59:32;9.95;;;6.32;;
56999;SDS011;42891;50.006;21.964;2024-01-30T04:03:33;12.02;;;6.88;;
56999;SDS011;42891;50.006;21.964;2024-01-30T04:07:33;8.43;;;6.13;;
56999;SDS011;42891;50.006;21.964;2024-01-30T04:11:34;11.20;;;6.07;;
56999;SDS011;42891;50.006;21.964;2024-01-30T04:15:35;11.55;;;7.00;;
56999;SDS011;42891;50.006;21.964;2024-01-30T04:19:39;12.80;;;7.20;;
56999;SDS011;42891;50.006;21.964;2024-01-30T04:23:40;13.27;;;7.90;;
56999;SDS011;42891;50.006;21.964;2024-01-30T04:27:41;13.73;;;8.20;;
56999;SDS011;42891;50.006;21.964;2024-01-30T04:31:41;17.75;;;9.82;;
56999;SDS011;42891;50.006;21.964;2024-01-30T04:35:42;15.25;;;9.25;;
56999;SDS011;42891;50.006;21.964;2024-01-30T04:39:42;13.48;;;8.23;;
56999;SDS011;42891;50.006;21.964;2024-01-30T04:43:43;13.32;;;8.30;;
56999;SDS011;42891;50.006;21.964;2024-01-30T04:47:43;12.07;;;7.70;;
56999;SDS011;42891;50.006;21.964;2024-01-30T04:51:44;13.18;;;7.35;;
56999;SDS011;42891;50.006;21.964;2024-01-30T04:55:44;13.10;;;7.82;;
56999;SDS011;42891;50.006;21.964;2024-01-30T04:59:44;15.35;;;7.75;;
56999;SDS011;42891;50.006;21.964;2024-01-30T05:03:45;12.65;;;7.22;;
56999;SDS011;42891;50.006;21.964;2024-01-30T05:07:45;9.43;;;6.82;;
56999;SDS011;42891;50.006;21.964;2024-01-30T05:11:46;16.88;;;10.65;;
56999;SDS011;42891;50.006;21.964;2024-01-30T05:15:47;17.60;;;9.25;;
56999;SDS011;42891;50.006;21.964;2024-01-30T05:19:47;13.23;;;8.10;;
56999;SDS011;42891;50.006;21.964;2024-01-30T05:23:48;12.00;;;8.75;;
56999;SDS011;42891;50.006;21.964;2024-01-30T05:27:48;11.43;;;7.47;;
56999;SDS011;42891;50.006;21.964;2024-01-30T05:31:49;17.73;;;13.18;;
56999;SDS011;42891;50.006;21.964;2024-01-30T05:35:49;16.35;;;11.30;;
56999;SDS011;42891;50.006;21.964;2024-01-30T05:39:50;16.00;;;10.63;;
56999;SDS011;42891;50.006;21.964;2024-01-30T05:43:51;17.08;;;9.50;;
56999;SDS011;42891;50.006;21.964;2024-01-30T05:47:51;14.93;;;10.25;;
56999;SDS011;42891;50.006;21.964;2024-01-30T05:51:53;9.15;;;7.03;;
56999;SDS011;42891;50.006;21.964;2024-01-30T05:55:54;12.93;;;7.70;;
56999;SDS011;42891;50.006;21.964;2024-01-30T05:59:54;11.13;;;6.82;;
56999;SDS011;42891;50.006;21.964;2024-01-30T06:03:55;11.38;;;6.80;;
56999;SDS011;42891;50.006;21.964;2024-01-30T06:07:56;9.00;;;6.43;;
56999;SDS011;42891;50.006;21.964;2024-01-30T06:11:57;11.02;;;6.38;;
56999;SDS011;42891;50.006;21.964;2024-01-30T06:15:57;8.73;;;5.85;;
56999;SDS011;42891;50.006;21.964;2024-01-30T06:19:58;12.38;;;6.55;;
56999;SDS011;42891;50.006;21.964;2024-01-30T06:24:00;9.10;;;6.35;;
56999;SDS011;42891;50.006;21.964;2024-01-30T06:28:00;10.30;;;6.78;;
56999;SDS011;42891;50.006;21.964;2024-01-30T06:32:01;9.48;;;6.28;;
56999;SDS011;42891;50.006;21.964;2024-01-30T06:36:01;8.90;;;6.10;;
56999;SDS011;42891;50.006;21.964;2024-01-30T06:40:02;9.38;;;5.85;;
56999;SDS011;42891;50.006;21.964;2024-01-30T06:44:05;11.32;;;6.68;;
56999;SDS011;42891;50.006;21.964;2024-01-30T06:48:08;9.48;;;6.35;;
56999;SDS011;42891;50.006;21.964;2024-01-30T06:52:08;9.63;;;6.13;;
56999;SDS011;42891;50.006;21.964;2024-01-30T06:56:09;10.32;;;6.57;;
56999;SDS011;42891;50.006;21.964;2024-01-30T07:00:10;10.25;;;6.70;;
56999;SDS011;42891;50.006;21.964;2024-01-30T07:04:11;11.00;;;6.38;;
56999;SDS011;42891;50.006;21.964;2024-01-30T07:08:11;13.35;;;7.88;;
56999;SDS011;42891;50.006;21.964;2024-01-30T07:12:12;23.35;;;12.75;;
56999;SDS011;42891;50.006;21.964;2024-01-30T07:16:13;12.45;;;7.72;;
56999;SDS011;42891;50.006;21.964;2024-01-30T07:20:14;31.50;;;22.30;;
56999;SDS011;42891;50.006;21.964;2024-01-30T07:24:14;12.02;;;8.18;;
56999;SDS011;42891;50.006;21.964;2024-01-30T07:28:16;12.23;;;7.30;;
56999;SDS011;42891;50.006;21.964;2024-01-30T07:32:19;14.15;;;9.10;;
56999;SDS011;42891;50.006;21.964;2024-01-30T07:36:19;10.63;;;7.18;;
56999;SDS011;42891;50.006;21.964;2024-01-30T07:40:20;10.27;;;7.50;;
56999;SDS011;42891;50.006;21.964;2024-01-30T07:44:20;11.23;;;6.55;;
56999;SDS011;42891;50.006;21.964;2024-01-30T07:48:22;8.70;;;6.55;;
56999;SDS011;42891;50.006;21.964;2024-01-30T07:52:23;8.95;;;6.03;;
56999;SDS011;42891;50.006;21.964;2024-01-30T07:56:24;9.95;;;6.25;;
56999;SDS011;42891;50.006;21.964;2024-01-30T08:00:25;10.35;;;6.50;;
56999;SDS011;42891;50.006;21.964;2024-01-30T08:04:26;13.23;;;6.78;;
56999;SDS011;42891;50.006;21.964;2024-01-30T08:08:26;10.07;;;5.50;;
56999;SDS011;42891;50.006;21.964;2024-01-30T08:12:27;9.43;;;5.82;;
56999;SDS011;42891;50.006;21.964;2024-01-30T08:16:28;13.63;;;6.60;;
56999;SDS011;42891;50.006;21.964;2024-01-30T08:20:31;9.90;;;6.30;;
56999;SDS011;42891;50.006;21.964;2024-01-30T08:24:31;11.60;;;6.38;;
56999;SDS011;42891;50.006;21.964;2024-01-30T08:28:32;11.85;;;6.85;;
56999;SDS011;42891;50.006;21.964;2024-01-30T08:32:33;10.00;;;5.75;;
56999;SDS011;42891;50.006;21.964;2024-01-30T08:36:33;11.07;;;5.93;;
56999;SDS011;42891;50.006;21.964;2024-01-30T08:40:34;10.55;;;6.18;;
56999;SDS011;42891;50.006;21.964;2024-01-30T08:44:35;7.90;;;5.32;;
56999;SDS011;42891;50.006;21.964;2024-01-30T08:48:35;8.63;;;5.95;;
56999;SDS011;42891;50.006;21.964;2024-01-30T08:52:36;8.77;;;6.07;;
56999;SDS011;42891;50.006;21.964;2024-01-30T08:56:36;9.52;;;5.75;;
56999;SDS011;42891;50.006;21.964;2024-01-30T09:00:37;10.15;;;6.43;;
56999;SDS011;42891;50.006;21.964;2024-01-30T09:04:37;7.47;;;4.93;;
56999;SDS011;42891;50.006;21.964;2024-01-30T09:08:38;8.65;;;5.95;;
56999;SDS011;42891;50.006;21.964;2024-01-30T09:12:38;9.80;;;5.88;;
56999;SDS011;42891;50.006;21.964;2024-01-30T09:16:39;8.50;;;5.28;;
56999;SDS011;42891;50.006;21.964;2024-01-30T09:20:40;7.15;;;5.20;;
56999;SDS011;42891;50.006;21.964;2024-01-30T09:24:41;8.50;;;5.97;;
56999;SDS011;42891;50.006;21.964;2024-01-30T09:28:41;7.72;;;5.30;;
56999;SDS011;42891;50.006;21.964;2024-01-30T09:32:42;10.98;;;6.80;;
56999;SDS011;42891;50.006;21.964;2024-01-30T09:36:43;9.27;;;5.75;;
56999;SDS011;42891;50.006;21.964;2024-01-30T09:40:44;8.93;;;5.75;;
56999;SDS011;42891;50.006;21.964;2024-01-30T09:44:50;12.13;;;7.18;;
56999;SDS011;42891;50.006;21.964;2024-01-30T09:48:52;14.70;;;7.72;;
56999;SDS011;42891;50.006;21.964;2024-01-30T09:52:54;16.88;;;8.90;;
56999;SDS011;42891;50.006;21.964;2024-01-30T09:56:57;11.68;;;6.85;;
56999;SDS011;42891;50.006;21.964;2024-01-30T10:00:58;10.98;;;6.13;;
56999;SDS011;42891;50.006;21.964;2024-01-30T10:04:58;10.95;;;6.93;;
56999;SDS011;42891;50.006;21.964;2024-01-30T10:08:59;18.15;;;8.70;;
56999;SDS011;42891;50.006;21.964;2024-01-30T10:13:00;20.25;;;9.82;;
56999;SDS011;42891;50.006;21.964;2024-01-30T10:17:01;21.65;;;10.80;;
56999;SDS011;42891;50.006;21.964;2024-01-30T10:21:02;11.48;;;7.57;;
56999;SDS011;42891;50.006;21.964;2024-01-30T10:25:03;8.95;;;6.20;;
56999;SDS011;42891;50.006;21.964;2024-01-30T10:29:04;10.43;;;6.40;;
56999;SDS011;42891;50.006;21.964;2024-01-30T10:33:05;7.45;;;5.63;;
56999;SDS011;42891;50.006;21.964;2024-01-30T10:37:07;10.20;;;5.65;;
56999;SDS011;42891;50.006;21.964;2024-01-30T10:41:15;8.68;;;5.68;;
56999;SDS011;42891;50.006;21.964;2024-01-30T10:45:23;9.18;;;5.68;;
56999;SDS011;42891;50.006;21.964;2024-01-30T10:49:27;8.30;;;5.13;;
56999;SDS011;42891;50.006;21.964;2024-01-30T10:53:32;10.15;;;6.57;;
56999;SDS011;42891;50.006;21.964;2024-01-30T10:57:34;10.50;;;5.13;;
56999;SDS011;42891;50.006;21.964;2024-01-30T11:01:36;6.78;;;4.88;;
56999;SDS011;42891;50.006;21.964;2024-01-30T11:05:40;10.00;;;5.63;;
56999;SDS011;42891;50.006;21.964;2024-01-30T11:09:41;10.65;;;6.43;;
56999;SDS011;42891;50.006;21.964;2024-01-30T11:13:49;9.80;;;6.47;;
56999;SDS011;42891;50.006;21.964;2024-01-30T11:17:51;7.65;;;4.88;;
56999;SDS011;42891;50.006;21.964;2024-01-30T11:21:55;8.05;;;5.30;;
56999;SDS011;42891;50.006;21.964;2024-01-30T11:25:57;8.17;;;5.77;;
56999;SDS011;42891;50.006;21.964;2024-01-30T11:30:01;10.18;;;5.25;;
56999;SDS011;42891;50.006;21.964;2024-01-30T11:34:03;7.70;;;5.30;;
56999;SDS011;42891;50.006;21.964;2024-01-30T11:38:03;7.15;;;5.10;;
56999;SDS011;42891;50.006;21.964;2024-01-30T11:42:04;9.45;;;5.97;;
56999;SDS011;42891;50.006;21.964;2024-01-30T11:46:09;7.47;;;5.68;;
56999;SDS011;42891;50.006;21.964;2024-01-30T11:50:10;8.20;;;5.95;;
56999;SDS011;42891;50.006;21.964;2024-01-30T11:54:11;8.13;;;5.85;;
56999;SDS011;42891;50.006;21.964;2024-01-30T11:58:12;11.90;;;6.30;;
56999;SDS011;42891;50.006;21.964;2024-01-30T12:02:16;7.80;;;5.07;;
56999;SDS011;42891;50.006;21.964;2024-01-30T12:06:17;7.50;;;5.38;;
56999;SDS011;42891;50.006;21.964;2024-01-30T12:10:17;15.52;;;8.82;;
56999;SDS011;42891;50.006;21.964;2024-01-30T12:14:19;8.10;;;5.82;;
56999;SDS011;42891;50.006;21.964;2024-01-30T12:18:20;12.43;;;7.43;;
56999;SDS011;42891;50.006;21.964;2024-01-30T12:22:21;7.63;;;5.70;;
56999;SDS011;42891;50.006;21.964;2024-01-30T12:26:22;11.07;;;6.50;;
56999;SDS011;42891;50.006;21.964;2024-01-30T12:30:24;10.55;;;6.47;;
56999;SDS011;42891;50.006;21.964;2024-01-30T12:34:25;11.10;;;7.10;;
56999;SDS011;42891;50.006;21.964;2024-01-30T12:38:25;8.82;;;5.40;;
56999;SDS011;42891;50.006;21.964;2024-01-30T12:42:26;7.40;;;5.00;;
56999;SDS011;42891;50.006;21.964;2024-01-30T12:46:28;6.90;;;4.70;;
56999;SDS011;42891;50.006;21.964;2024-01-30T12:50:29;6.90;;;5.13;;
56999;SDS011;42891;50.006;21.964;2024-01-30T12:54:30;6.68;;;5.13;;
56999;SDS011;42891;50.006;21.964;2024-01-30T12:58:30;10.13;;;5.35;;
56999;SDS011;42891;50.006;21.964;2024-01-30T13:02:31;7.82;;;5.30;;
56999;SDS011;42891;50.006;21.964;2024-01-30T13:06:36;7.65;;;5.07;;
56999;SDS011;42891;50.006;21.964;2024-01-30T13:10:37;8.40;;;5.75;;
56999;SDS011;42891;50.006;21.964;2024-01-30T13:14:37;8.20;;;5.85;;
56999;SDS011;42891;50.006;21.964;2024-01-30T13:18:37;8.45;;;5.43;;
56999;SDS011;42891;50.006;21.964;2024-01-30T13:22:38;7.10;;;5.32;;
56999;SDS011;42891;50.006;21.964;2024-01-30T13:26:40;6.88;;;4.80;;
56999;SDS011;42891;50.006;21.964;2024-01-30T13:30:42;8.25;;;5.80;;
56999;SDS011;42891;50.006;21.964;2024-01-30T13:34:43;6.65;;;5.30;;
56999;SDS011;42891;50.006;21.964;2024-01-30T13:38:43;8.45;;;6.13;;
56999;SDS011;42891;50.006;21.964;2024-01-30T13:42:44;9.07;;;5.63;;
56999;SDS011;42891;50.006;21.964;2024-01-30T13:46:44;8.93;;;6.28;;
56999;SDS011;42891;50.006;21.964;2024-01-30T13:50:45;10.27;;;5.82;;
56999;SDS011;42891;50.006;21.964;2024-01-30T13:54:45;7.93;;;5.88;;
56999;SDS011;42891;50.006;21.964;2024-01-30T13:58:48;9.05;;;5.95;;
56999;SDS011;42891;50.006;21.964;2024-01-30T14:02:49;10.35;;;6.13;;
56999;SDS011;42891;50.006;21.964;2024-01-30T14:06:50;10.18;;;7.03;;
56999;SDS011;42891;50.006;21.964;2024-01-30T14:10:52;11.38;;;6.07;;
56999;SDS011;42891;50.006;21.964;2024-01-30T14:14:52;7.97;;;6.43;;
56999;SDS011;42891;50.006;21.964;2024-01-30T14:18:53;7.70;;;5.65;;
56999;SDS011;42891;50.006;21.964;2024-01-30T14:22:54;7.78;;;5.78;;
56999;SDS011;42891;50.006;21.964;2024-01-30T14:26:55;8.95;;;6.38;;
56999;SDS011;42891;50.006;21.964;2024-01-30T14:30:56;8.43;;;6.03;;
56999;SDS011;42891;50.006;21.964;2024-01-30T14:34:56;9.77;;;6.45;;
56999;SDS011;42891;50.006;21.964;2024-01-30T14:38:57;7.50;;;6.03;;
56999;SDS011;42891;50.006;21.964;2024-01-30T14:42:58;11.38;;;6.28;;
56999;SDS011;42891;50.006;21.964;2024-01-30T14:46:58;9.55;;;6.55;;
56999;SDS011;42891;50.006;21.964;2024-01-30T14:50:59;11.95;;;7.70;;
56999;SDS011;42891;50.006;21.964;2024-01-30T14:55:00;10.45;;;7.18;;
56999;SDS011;42891;50.006;21.964;2024-01-30T14:59:01;12.57;;;7.55;;
56999;SDS011;42891;50.006;21.964;2024-01-30T15:03:03;11.60;;;6.65;;
56999;SDS011;42891;50.006;21.964;2024-01-30T15:07:04;12.88;;;7.35;;
56999;SDS011;42891;50.006;21.964;2024-01-30T15:11:04;11.02;;;7.25;;
56999;SDS011;42891;50.006;21.964;2024-01-30T15:15:06;13.65;;;7.68;;
56999;SDS011;42891;50.006;21.964;2024-01-30T15:19:07;14.32;;;8.52;;
56999;SDS011;42891;50.006;21.964;2024-01-30T15:23:08;22.42;;;12.98;;
56999;SDS011;42891;50.006;21.964;2024-01-30T15:27:09;13.52;;;9.25;;
56999;SDS011;42891;50.006;21.964;2024-01-30T15:31:09;16.35;;;8.63;;
56999;SDS011;42891;50.006;21.964;2024-01-30T15:35:10;15.73;;;10.82;;
56999;SDS011;42891;50.006;21.964;2024-01-30T15:39:11;20.48;;;13.73;;
56999;SDS011;42891;50.006;21.964;2024-01-30T15:43:11;21.58;;;12.80;;
56999;SDS011;42891;50.006;21.964;2024-01-30T15:47:12;29.67;;;18.13;;
56999;SDS011;42891;50.006;21.964;2024-01-30T15:51:13;31.13;;;17.95;;
56999;SDS011;42891;50.006;21.964;2024-01-30T15:55:13;25.27;;;16.75;;
56999;SDS011;42891;50.006;21.964;2024-01-30T15:59:14;23.67;;;14.52;;
56999;SDS011;42891;50.006;21.964;2024-01-30T16:03:16;27.95;;;17.23;;
56999;SDS011;42891;50.006;21.964;2024-01-30T16:07:17;23.38;;;13.77;;
56999;SDS011;42891;50.006;21.964;2024-01-30T16:11:18;31.48;;;18.17;;
56999;SDS011;42891;50.006;21.964;2024-01-30T16:15:19;37.65;;;23.50;;
56999;SDS011;42891;50.006;21.964;2024-01-30T16:19:20;23.10;;;13.50;;
56999;SDS011;42891;50.006;21.964;2024-01-30T16:23:21;31.42;;;17.52;;
56999;SDS011;42891;50.006;21.964;2024-01-30T16:27:21;22.90;;;15.18;;
56999;SDS011;42891;50.006;21.964;2024-01-30T16:31:22;23.08;;;14.30;;
56999;SDS011;42891;50.006;21.964;2024-01-30T16:35:23;23.95;;;14.05;;
56999;SDS011;42891;50.006;21.964;2024-01-30T16:39:23;21.30;;;13.38;;
56999;SDS011;42891;50.006;21.964;2024-01-30T16:43:25;19.25;;;12.10;;
56999;SDS011;42891;50.006;21.964;2024-01-30T16:47:26;23.13;;;13.30;;
56999;SDS011;42891;50.006;21.964;2024-01-30T16:51:27;21.90;;;13.85;;
56999;SDS011;42891;50.006;21.964;2024-01-30T16:55:27;24.10;;;14.27;;
56999;SDS011;42891;50.006;21.964;2024-01-30T16:59:28;25.88;;;14.35;;
56999;SDS011;42891;50.006;21.964;2024-01-30T17:03:29;30.52;;;15.63;;
56999;SDS011;42891;50.006;21.964;2024-01-30T17:07:29;31.25;;;17.48;;
56999;SDS011;42891;50.006;21.964;2024-01-30T17:11:35;32.85;;;19.05;;
56999;SDS011;42891;50.006;21.964;2024-01-30T17:15:35;26.60;;;13.85;;
56999;SDS011;42891;50.006;21.964;2024-01-30T17:19:38;29.42;;;17.65;;
56999;SDS011;42891;50.006;21.964;2024-01-30T17:23:39;25.88;;;15.95;;
56999;SDS011;42891;50.006;21.964;2024-01-30T17:27:40;28.10;;;14.50;;
56999;SDS011;42891;50.006;21.964;2024-01-30T17:31:40;26.13;;;15.75;;
56999;SDS011;42891;50.006;21.964;2024-01-30T17:35:41;25.27;;;15.45;;
56999;SDS011;42891;50.006;21.964;2024-01-30T17:39:42;36.00;;;20.30;;
56999;SDS011;42891;50.006;21.964;2024-01-30T17:43:43;26.67;;;15.88;;
56999;SDS011;42891;50.006;21.964;2024-01-30T17:47:44;31.85;;;19.55;;
56999;SDS011;42891;50.006;21.964;2024-01-30T17:51:44;26.42;;;15.20;;
56999;SDS011;42891;50.006;21.964;2024-01-30T17:55:45;32.08;;;16.90;;
56999;SDS011;42891;50.006;21.964;2024-01-30T17:59:45;27.02;;;15.73;;
56999;SDS011;42891;50.006;21.964;2024-01-30T18:03:46;27.35;;;15.98;;
56999;SDS011;42891;50.006;21.964;2024-01-30T18:07:47;23.48;;;13.98;;
56999;SDS011;42891;50.006;21.964;2024-01-30T18:11:48;26.40;;;14.98;;
56999;SDS011;42891;50.006;21.964;2024-01-30T18:15:48;26.23;;;14.57;;
56999;SDS011;42891;50.006;21.964;2024-01-30T18:19:49;33.15;;;16.95;;
56999;SDS011;42891;50.006;21.964;2024-01-30T18:23:49;30.02;;;16.17;;
56999;SDS011;42891;50.006;21.964;2024-01-30T18:27:50;27.88;;;15.52;;
56999;SDS011;42891;50.006;21.964;2024-01-30T18:31:50;28.98;;;16.33;;
56999;SDS011;42891;50.006;21.964;2024-01-30T18:35:51;26.02;;;15.40;;
56999;SDS011;42891;50.006;21.964;2024-01-30T18:39:51;26.88;;;15.27;;
56999;SDS011;42891;50.006;21.964;2024-01-30T18:43:53;30.58;;;17.73;;
56999;SDS011;42891;50.006;21.964;2024-01-30T18:47:53;39.67;;;22.95;;
56999;SDS011;42891;50.006;21.964;2024-01-30T18:51:54;25.05;;;15.70;;
56999;SDS011;42891;50.006;21.964;2024-01-30T18:55:57;27.70;;;16.27;;
56999;SDS011;42891;50.006;21.964;2024-01-30T18:59:58;30.75;;;17.95;;
56999;SDS011;42891;50.006;21.964;2024-01-30T19:03:58;34.08;;;18.30;;
56999;SDS011;42891;50.006;21.964;2024-01-30T19:07:59;39.42;;;20.92;;
56999;SDS011;42891;50.006;21.964;2024-01-30T19:12:00;37.58;;;20.60;;
56999;SDS011;42891;50.006;21.964;2024-01-30T19:16:00;35.33;;;18.30;;
56999;SDS011;42891;50.006;21.964;2024-01-30T19:20:03;37.28;;;20.60;;
56999;SDS011;42891;50.006;21.964;2024-01-30T19:24:04;31.80;;;19.65;;
56999;SDS011;42891;50.006;21.964;2024-01-30T19:28:05;37.75;;;20.48;;
56999;SDS011;42891;50.006;21.964;2024-01-30T19:32:07;36.58;;;20.42;;
56999;SDS011;42891;50.006;21.964;2024-01-30T19:36:08;38.38;;;21.92;;
56999;SDS011;42891;50.006;21.964;2024-01-30T19:40:09;36.42;;;19.30;;
56999;SDS011;42891;50.006;21.964;2024-01-30T19:44:10;44.10;;;22.58;;
56999;SDS011;42891;50.006;21.964;2024-01-30T19:48:12;50.65;;;25.20;;
56999;SDS011;42891;50.006;21.964;2024-01-30T19:52:12;49.67;;;27.60;;
56999;SDS011;42891;50.006;21.964;2024-01-30T19:56:14;41.13;;;20.92;;
56999;SDS011;42891;50.006;21.964;2024-01-30T20:00:17;46.72;;;23.38;;
56999;SDS011;42891;50.006;21.964;2024-01-30T20:04:18;47.70;;;23.75;;
56999;SDS011;42891;50.006;21.964;2024-01-30T20:08:19;43.03;;;22.52;;
56999;SDS011;42891;50.006;21.964;2024-01-30T20:12:19;46.28;;;23.67;;
56999;SDS011;42891;50.006;21.964;2024-01-30T20:16:21;40.60;;;22.00;;
56999;SDS011;42891;50.006;21.964;2024-01-30T20:20:21;57.53;;;26.02;;
56999;SDS011;42891;50.006;21.964;2024-01-30T20:24:22;36.47;;;18.95;;
56999;SDS011;42891;50.006;21.964;2024-01-30T20:28:23;29.17;;;17.48;;
56999;SDS011;42891;50.006;21.964;2024-01-30T20:32:25;33.83;;;18.77;;
56999;SDS011;42891;50.006;21.964;2024-01-30T20:36:27;57.75;;;27.35;;
56999;SDS011;42891;50.006;21.964;2024-01-30T20:40:27;44.85;;;23.33;;
56999;SDS011;42891;50.006;21.964;2024-01-30T20:44:28;38.47;;;22.60;;
56999;SDS011;42891;50.006;21.964;2024-01-30T20:48:29;37.42;;;19.65;;
56999;SDS011;42891;50.006;21.964;2024-01-30T20:52:30;39.03;;;21.08;;
56999;SDS011;42891;50.006;21.964;2024-01-30T20:56:30;35.35;;;19.60;;
56999;SDS011;42891;50.006;21.964;2024-01-30T21:00:31;27.38;;;16.27;;
56999;SDS011;42891;50.006;21.964;2024-01-30T21:04:31;30.45;;;17.48;;
56999;SDS011;42891;50.006;21.964;2024-01-30T21:08:32;39.78;;;24.33;;
56999;SDS011;42891;50.006;21.964;2024-01-30T21:12:33;31.88;;;18.30;;
56999;SDS011;42891;50.006;21.964;2024-01-30T21:16:34;30.90;;;17.30;;
56999;SDS011;42891;50.006;21.964;2024-01-30T21:20:35;34.30;;;18.63;;
56999;SDS011;42891;50.006;21.964;2024-01-30T21:24:37;30.83;;;17.20;;
56999;SDS011;42891;50.006;21.964;2024-01-30T21:28:37;34.17;;;19.00;;
56999;SDS011;42891;50.006;21.964;2024-01-30T21:32:38;32.60;;;18.23;;
56999;SDS011;42891;50.006;21.964;2024-01-30T21:36:39;35.47;;;19.27;;
56999;SDS011;42891;50.006;21.964;2024-01-30T21:40:39;31.38;;;18.00;;
56999;SDS011;42891;50.006;21.964;2024-01-30T21:44:40;32.13;;;17.63;;
56999;SDS011;42891;50.006;21.964;2024-01-30T21:48:42;27.35;;;16.60;;
56999;SDS011;42891;50.006;21.964;2024-01-30T21:52:43;29.92;;;17.88;;
56999;SDS011;42891;50.006;21.964;2024-01-30T21:56:43;30.70;;;17.83;;
56999;SDS011;42891;50.006;21.964;2024-01-30T22:00:44;31.05;;;17.48;;
56999;SDS011;42891;50.006;21.964;2024-01-30T22:04:44;38.25;;;19.45;;
56999;SDS011;42891;50.006;21.964;2024-01-30T22:08:47;31.05;;;18.52;;
56999;SDS011;42891;50.006;21.964;2024-01-30T22:12:48;32.08;;;17.73;;
56999;SDS011;42891;50.006;21.964;2024-01-30T22:16:49;31.05;;;17.95;;
56999;SDS011;42891;50.006;21.964;2024-01-30T22:20:49;33.90;;;18.42;;
56999;SDS011;42891;50.006;21.964;2024-01-30T22:24:50;28.42;;;17.67;;
56999;SDS011;42891;50.006;21.964;2024-01-30T22:28:50;31.98;;;18.48;;
56999;SDS011;42891;50.006;21.964;2024-01-30T22:32:51;30.05;;;17.80;;
56999;SDS011;42891;50.006;21.964;2024-01-30T22:36:52;30.88;;;17.67;;
56999;SDS011;42891;50.006;21.964;2024-01-30T22:40:52;29.83;;;18.15;;
56999;SDS011;42891;50.006;21.964;2024-01-30T22:44:53;29.17;;;17.38;;
56999;SDS011;42891;50.006;21.964;2024-01-30T22:48:53;27.23;;;17.10;;
56999;SDS011;42891;50.006;21.964;2024-01-30T22:52:54;31.02;;;17.83;;
56999;SDS011;42891;50.006;21.964;2024-01-30T22:56:54;28.35;;;17.02;;
56999;SDS011;42891;50.006;21.964;2024-01-30T23:00:55;26.92;;;17.10;;
56999;SDS011;42891;50.006;21.964;2024-01-30T23:04:56;30.30;;;18.02;;
56999;SDS011;42891;50.006;21.964;2024-01-30T23:08:56;30.88;;;16.58;;
56999;SDS011;42891;50.006;21.964;2024-01-30T23:12:57;25.50;;;16.83;;
56999;SDS011;42891;50.006;21.964;2024-01-30T23:16:58;26.55;;;17.40;;
56999;SDS011;42891;50.006;21.964;2024-01-30T23:20:59;30.65;;;18.38;;
56999;SDS011;42891;50.006;21.964;2024-01-30T23:25:00;30.17;;;17.20;;
56999;SDS011;42891;50.006;21.964;2024-01-30T23:29:00;31.42;;;17.42;;